sensor_id;sensor_type;location;lat;lon;timestamp;P1;durP1;ratioP1;P2;durP2;ratioP2
22949;SDS011;11641;51.018;4.474;2022-07-05T00:00:50;4.38;;;3.15;;
22949;SDS011;11641;51.018;4.474;2022-07-05T00:03:16;8.75;;;3.60;;
22949;SDS011;11641;51.018;4.474;2022-07-05T00:05:41;6.15;;;3.40;;
22949;SDS011;11641;51.018;4.474;2022-07-05T00:08:08;8.00;;;3.25;;
22949;SDS011;11641;51.018;4.474;2022-07-05T00:10:37;4.93;;;2.78;;
22949;SDS011;11641;51.018;4.474;2022-07-05T00:13:04;6.45;;;3.13;;
22949;SDS011;11641;51.018;4.474;2022-07-05T00:15:31;6.00;;;3.20;;
22949;SDS011;11641;51.018;4.474;2022-07-05T00:17:57;7.10;;;3.20;;
22949;SDS011;11641;51.018;4.474;2022-07-05T00:20:23;7.97;;;3.25;;
22949;SDS011;11641;51.018;4.474;2022-07-05T00:22:50;10.07;;;3.40;;
22949;SDS011;11641;51.018;4.474;2022-07-05T00:25:15;10.13;;;3.35;;
22949;SDS011;11641;51.018;4.474;2022-07-05T00:27:42;7.18;;;3.30;;
22949;SDS011;11641;51.018;4.474;2022-07-05T00:30:08;6.07;;;3.20;;
22949;SDS011;11641;51.018;4.474;2022-07-05T00:32:37;7.82;;;3.08;;
22949;SDS011;11641;51.018;4.474;2022-07-05T00:35:04;7.38;;;3.70;;
22949;SDS011;11641;51.018;4.474;2022-07-05T00:37:31;6.57;;;2.92;;
22949;SDS011;11641;51.018;4.474;2022-07-05T00:39:57;9.70;;;3.13;;
22949;SDS011;11641;51.018;4.474;2022-07-05T00:42:23;5.82;;;3.05;;
22949;SDS011;11641;51.018;4.474;2022-07-05T00:44:49;6.88;;;3.05;;
22949;SDS011;11641;51.018;4.474;2022-07-05T00:47:15;6.50;;;3.55;;
22949;SDS011;11641;51.018;4.474;2022-07-05T00:49:41;6.28;;;2.85;;
22949;SDS011;11641;51.018;4.474;2022-07-05T00:52:08;6.70;;;3.25;;
22949;SDS011;11641;51.018;4.474;2022-07-05T00:54:36;4.82;;;2.80;;
22949;SDS011;11641;51.018;4.474;2022-07-05T00:57:02;7.43;;;3.58;;
22949;SDS011;11641;51.018;4.474;2022-07-05T00:59:29;6.95;;;3.10;;
22949;SDS011;11641;51.018;4.474;2022-07-05T01:01:55;7.43;;;3.30;;
22949;SDS011;11641;51.018;4.474;2022-07-05T01:04:24;10.10;;;3.67;;
22949;SDS011;11641;51.018;4.474;2022-07-05T01:06:51;8.45;;;3.25;;
22949;SDS011;11641;51.018;4.474;2022-07-05T01:09:19;8.35;;;3.55;;
22949;SDS011;11641;51.018;4.474;2022-07-05T01:11:46;5.50;;;3.13;;
22949;SDS011;11641;51.018;4.474;2022-07-05T01:14:15;8.10;;;3.78;;
22949;SDS011;11641;51.018;4.474;2022-07-05T01:16:42;11.70;;;4.07;;
22949;SDS011;11641;51.018;4.474;2022-07-05T01:19:10;7.60;;;4.28;;
22949;SDS011;11641;51.018;4.474;2022-07-05T01:21:41;6.72;;;4.30;;
22949;SDS011;11641;51.018;4.474;2022-07-05T01:24:08;7.13;;;4.03;;
22949;SDS011;11641;51.018;4.474;2022-07-05T01:26:38;10.57;;;4.50;;
22949;SDS011;11641;51.018;4.474;2022-07-05T01:29:05;10.23;;;4.25;;
22949;SDS011;11641;51.018;4.474;2022-07-05T01:31:32;12.05;;;4.57;;
22949;SDS011;11641;51.018;4.474;2022-07-05T01:34:03;7.20;;;4.25;;
22949;SDS011;11641;51.018;4.474;2022-07-05T01:36:29;9.18;;;4.07;;
22949;SDS011;11641;51.018;4.474;2022-07-05T01:38:55;8.00;;;4.28;;
22949;SDS011;11641;51.018;4.474;2022-07-05T01:41:21;8.30;;;4.95;;
22949;SDS011;11641;51.018;4.474;2022-07-05T01:43:49;10.52;;;4.75;;
22949;SDS011;11641;51.018;4.474;2022-07-05T01:46:15;7.78;;;4.70;;
22949;SDS011;11641;51.018;4.474;2022-07-05T01:48:41;8.20;;;4.85;;
22949;SDS011;11641;51.018;4.474;2022-07-05T01:51:09;8.88;;;4.93;;
22949;SDS011;11641;51.018;4.474;2022-07-05T01:53:43;9.85;;;5.95;;
22949;SDS011;11641;51.018;4.474;2022-07-05T01:56:11;10.90;;;5.43;;
22949;SDS011;11641;51.018;4.474;2022-07-05T01:58:36;9.20;;;5.75;;
22949;SDS011;11641;51.018;4.474;2022-07-05T02:01:06;7.78;;;5.38;;
22949;SDS011;11641;51.018;4.474;2022-07-05T02:03:31;7.47;;;5.22;;
22949;SDS011;11641;51.018;4.474;2022-07-05T02:05:57;7.72;;;5.00;;
22949;SDS011;11641;51.018;4.474;2022-07-05T02:08:28;6.88;;;4.68;;
22949;SDS011;11641;51.018;4.474;2022-07-05T02:10:55;8.18;;;5.55;;
22949;SDS011;11641;51.018;4.474;2022-07-05T02:13:21;9.60;;;5.63;;
22949;SDS011;11641;51.018;4.474;2022-07-05T02:15:47;8.10;;;5.03;;
22949;SDS011;11641;51.018;4.474;2022-07-05T02:18:13;7.05;;;5.43;;
22949;SDS011;11641;51.018;4.474;2022-07-05T02:20:39;10.80;;;5.40;;
22949;SDS011;11641;51.018;4.474;2022-07-05T02:23:08;7.40;;;4.68;;
22949;SDS011;11641;51.018;4.474;2022-07-05T02:25:37;7.28;;;4.95;;
22949;SDS011;11641;51.018;4.474;2022-07-05T02:28:02;7.78;;;4.93;;
22949;SDS011;11641;51.018;4.474;2022-07-05T02:30:29;8.57;;;4.55;;
22949;SDS011;11641;51.018;4.474;2022-07-05T02:32:55;8.48;;;5.05;;
22949;SDS011;11641;51.018;4.474;2022-07-05T02:35:25;7.60;;;4.53;;
22949;SDS011;11641;51.018;4.474;2022-07-05T02:37:50;7.18;;;4.32;;
22949;SDS011;11641;51.018;4.474;2022-07-05T02:40:16;8.25;;;5.10;;
22949;SDS011;11641;51.018;4.474;2022-07-05T02:42:42;6.15;;;4.57;;
22949;SDS011;11641;51.018;4.474;2022-07-05T02:45:08;7.32;;;4.93;;
22949;SDS011;11641;51.018;4.474;2022-07-05T02:47:34;6.60;;;4.80;;
22949;SDS011;11641;51.018;4.474;2022-07-05T02:50:09;7.60;;;5.03;;
22949;SDS011;11641;51.018;4.474;2022-07-05T02:52:35;7.80;;;4.70;;
22949;SDS011;11641;51.018;4.474;2022-07-05T02:55:02;7.88;;;4.25;;
22949;SDS011;11641;51.018;4.474;2022-07-05T02:57:28;9.10;;;5.22;;
22949;SDS011;11641;51.018;4.474;2022-07-05T02:59:55;9.32;;;4.72;;
22949;SDS011;11641;51.018;4.474;2022-07-05T03:02:21;11.57;;;5.20;;
22949;SDS011;11641;51.018;4.474;2022-07-05T03:04:48;9.93;;;4.90;;
22949;SDS011;11641;51.018;4.474;2022-07-05T03:07:14;7.93;;;4.80;;
22949;SDS011;11641;51.018;4.474;2022-07-05T03:09:39;9.13;;;4.90;;
22949;SDS011;11641;51.018;4.474;2022-07-05T03:12:07;7.72;;;4.75;;
22949;SDS011;11641;51.018;4.474;2022-07-05T03:14:33;5.95;;;4.35;;
22949;SDS011;11641;51.018;4.474;2022-07-05T03:16:59;10.00;;;5.63;;
22949;SDS011;11641;51.018;4.474;2022-07-05T03:19:32;9.40;;;5.30;;
22949;SDS011;11641;51.018;4.474;2022-07-05T03:22:00;8.63;;;5.05;;
22949;SDS011;11641;51.018;4.474;2022-07-05T03:24:25;7.85;;;4.75;;
22949;SDS011;11641;51.018;4.474;2022-07-05T03:26:51;6.53;;;4.78;;
22949;SDS011;11641;51.018;4.474;2022-07-05T03:29:17;8.65;;;5.05;;
22949;SDS011;11641;51.018;4.474;2022-07-05T03:31:42;6.80;;;5.22;;
22949;SDS011;11641;51.018;4.474;2022-07-05T03:34:08;9.95;;;5.40;;
22949;SDS011;11641;51.018;4.474;2022-07-05T03:36:34;9.20;;;5.20;;
22949;SDS011;11641;51.018;4.474;2022-07-05T03:39:02;10.23;;;5.53;;
22949;SDS011;11641;51.018;4.474;2022-07-05T03:41:48;9.02;;;5.10;;
22949;SDS011;11641;51.018;4.474;2022-07-05T03:44:14;14.43;;;5.97;;
22949;SDS011;11641;51.018;4.474;2022-07-05T03:46:42;9.82;;;5.40;;
22949;SDS011;11641;51.018;4.474;2022-07-05T03:49:10;11.23;;;5.13;;
22949;SDS011;11641;51.018;4.474;2022-07-05T03:51:38;9.93;;;5.70;;
22949;SDS011;11641;51.018;4.474;2022-07-05T03:54:07;11.98;;;5.50;;
22949;SDS011;11641;51.018;4.474;2022-07-05T03:56:35;8.07;;;5.40;;
22949;SDS011;11641;51.018;4.474;2022-07-05T03:59:03;8.02;;;5.20;;
22949;SDS011;11641;51.018;4.474;2022-07-05T04:01:29;11.38;;;5.43;;
22949;SDS011;11641;51.018;4.474;2022-07-05T04:03:55;9.38;;;5.68;;
22949;SDS011;11641;51.018;4.474;2022-07-05T04:06:22;10.63;;;5.40;;
22949;SDS011;11641;51.018;4.474;2022-07-05T04:08:48;12.10;;;5.32;;
22949;SDS011;11641;51.018;4.474;2022-07-05T04:11:14;8.60;;;4.72;;
22949;SDS011;11641;51.018;4.474;2022-07-05T04:13:41;8.10;;;4.57;;
22949;SDS011;11641;51.018;4.474;2022-07-05T04:16:08;14.38;;;5.00;;
22949;SDS011;11641;51.018;4.474;2022-07-05T04:18:34;10.00;;;4.80;;
22949;SDS011;11641;51.018;4.474;2022-07-05T04:21:00;9.70;;;4.80;;
22949;SDS011;11641;51.018;4.474;2022-07-05T04:23:28;10.48;;;4.45;;
22949;SDS011;11641;51.018;4.474;2022-07-05T04:25:54;9.02;;;4.32;;
22949;SDS011;11641;51.018;4.474;2022-07-05T04:28:45;11.90;;;5.15;;
22949;SDS011;11641;51.018;4.474;2022-07-05T04:31:13;11.05;;;4.80;;
22949;SDS011;11641;51.018;4.474;2022-07-05T04:33:41;11.18;;;4.50;;
22949;SDS011;11641;51.018;4.474;2022-07-05T04:36:07;10.30;;;4.40;;
22949;SDS011;11641;51.018;4.474;2022-07-05T04:38:32;13.00;;;4.72;;
22949;SDS011;11641;51.018;4.474;2022-07-05T04:40:58;10.73;;;4.25;;
22949;SDS011;11641;51.018;4.474;2022-07-05T04:43:24;11.95;;;4.13;;
22949;SDS011;11641;51.018;4.474;2022-07-05T04:45:50;8.90;;;5.03;;
22949;SDS011;11641;51.018;4.474;2022-07-05T04:48:15;16.77;;;4.57;;
22949;SDS011;11641;51.018;4.474;2022-07-05T04:50:42;15.82;;;4.63;;
22949;SDS011;11641;51.018;4.474;2022-07-05T04:53:07;13.15;;;5.07;;
22949;SDS011;11641;51.018;4.474;2022-07-05T04:55:33;11.23;;;4.80;;
22949;SDS011;11641;51.018;4.474;2022-07-05T04:58:00;6.93;;;4.38;;
22949;SDS011;11641;51.018;4.474;2022-07-05T05:00:28;10.45;;;5.07;;
22949;SDS011;11641;51.018;4.474;2022-07-05T05:02:54;13.18;;;5.10;;
22949;SDS011;11641;51.018;4.474;2022-07-05T05:05:20;11.05;;;4.90;;
22949;SDS011;11641;51.018;4.474;2022-07-05T05:07:46;10.00;;;5.30;;
22949;SDS011;11641;51.018;4.474;2022-07-05T05:10:12;11.70;;;5.22;;
22949;SDS011;11641;51.018;4.474;2022-07-05T05:12:38;13.50;;;4.85;;
22949;SDS011;11641;51.018;4.474;2022-07-05T05:15:05;13.48;;;5.22;;
22949;SDS011;11641;51.018;4.474;2022-07-05T05:17:37;18.05;;;5.70;;
22949;SDS011;11641;51.018;4.474;2022-07-05T05:20:09;15.18;;;5.00;;
22949;SDS011;11641;51.018;4.474;2022-07-05T05:22:38;12.32;;;5.78;;
22949;SDS011;11641;51.018;4.474;2022-07-05T05:25:04;16.65;;;6.22;;
22949;SDS011;11641;51.018;4.474;2022-07-05T05:27:31;16.88;;;5.50;;
22949;SDS011;11641;51.018;4.474;2022-07-05T05:29:57;12.32;;;5.60;;
22949;SDS011;11641;51.018;4.474;2022-07-05T05:32:23;17.35;;;5.93;;
22949;SDS011;11641;51.018;4.474;2022-07-05T05:34:50;20.52;;;6.03;;
22949;SDS011;11641;51.018;4.474;2022-07-05T05:37:16;13.20;;;5.63;;
22949;SDS011;11641;51.018;4.474;2022-07-05T05:39:42;10.63;;;5.30;;
22949;SDS011;11641;51.018;4.474;2022-07-05T05:42:08;16.63;;;5.13;;
22949;SDS011;11641;51.018;4.474;2022-07-05T05:44:34;13.13;;;5.38;;
22949;SDS011;11641;51.018;4.474;2022-07-05T05:47:00;10.50;;;4.63;;
22949;SDS011;11641;51.018;4.474;2022-07-05T05:49:26;10.13;;;4.38;;
22949;SDS011;11641;51.018;4.474;2022-07-05T05:51:52;9.30;;;3.85;;
22949;SDS011;11641;51.018;4.474;2022-07-05T05:54:18;6.25;;;3.83;;
22949;SDS011;11641;51.018;4.474;2022-07-05T05:56:44;10.10;;;4.25;;
22949;SDS011;11641;51.018;4.474;2022-07-05T05:59:09;12.38;;;4.18;;
22949;SDS011;11641;51.018;4.474;2022-07-05T06:01:35;9.52;;;3.85;;
22949;SDS011;11641;51.018;4.474;2022-07-05T06:04:01;9.98;;;3.67;;
22949;SDS011;11641;51.018;4.474;2022-07-05T06:06:27;7.45;;;4.00;;
22949;SDS011;11641;51.018;4.474;2022-07-05T06:08:52;14.00;;;4.32;;
22949;SDS011;11641;51.018;4.474;2022-07-05T06:11:19;9.18;;;4.05;;
22949;SDS011;11641;51.018;4.474;2022-07-05T06:13:46;10.13;;;4.65;;
22949;SDS011;11641;51.018;4.474;2022-07-05T06:16:11;12.00;;;4.50;;
22949;SDS011;11641;51.018;4.474;2022-07-05T06:18:38;12.23;;;4.65;;
22949;SDS011;11641;51.018;4.474;2022-07-05T06:21:03;11.40;;;4.25;;
22949;SDS011;11641;51.018;4.474;2022-07-05T06:23:29;13.85;;;4.40;;
22949;SDS011;11641;51.018;4.474;2022-07-05T06:25:55;10.25;;;4.40;;
22949;SDS011;11641;51.018;4.474;2022-07-05T06:28:23;14.43;;;4.70;;
22949;SDS011;11641;51.018;4.474;2022-07-05T06:30:51;15.43;;;4.47;;
22949;SDS011;11641;51.018;4.474;2022-07-05T06:33:19;14.82;;;4.57;;
22949;SDS011;11641;51.018;4.474;2022-07-05T06:35:47;12.65;;;3.90;;
22949;SDS011;11641;51.018;4.474;2022-07-05T06:38:13;19.38;;;4.68;;
22949;SDS011;11641;51.018;4.474;2022-07-05T06:40:40;10.63;;;4.15;;
22949;SDS011;11641;51.018;4.474;2022-07-05T06:43:10;11.73;;;3.90;;
22949;SDS011;11641;51.018;4.474;2022-07-05T06:45:37;13.00;;;4.68;;
22949;SDS011;11641;51.018;4.474;2022-07-05T06:48:07;14.52;;;4.65;;
22949;SDS011;11641;51.018;4.474;2022-07-05T06:50:36;8.00;;;3.47;;
22949;SDS011;11641;51.018;4.474;2022-07-05T06:53:04;14.85;;;3.70;;
22949;SDS011;11641;51.018;4.474;2022-07-05T06:55:32;12.15;;;3.65;;
22949;SDS011;11641;51.018;4.474;2022-07-05T06:57:59;10.85;;;3.28;;
22949;SDS011;11641;51.018;4.474;2022-07-05T07:00:34;14.55;;;3.05;;
22949;SDS011;11641;51.018;4.474;2022-07-05T07:03:00;7.97;;;2.63;;
22949;SDS011;11641;51.018;4.474;2022-07-05T07:05:26;11.65;;;3.50;;
22949;SDS011;11641;51.018;4.474;2022-07-05T07:07:53;13.98;;;3.90;;
22949;SDS011;11641;51.018;4.474;2022-07-05T07:10:37;12.90;;;2.97;;
22949;SDS011;11641;51.018;4.474;2022-07-05T07:13:03;11.18;;;2.97;;
22949;SDS011;11641;51.018;4.474;2022-07-05T07:15:29;11.25;;;3.10;;
22949;SDS011;11641;51.018;4.474;2022-07-05T07:17:55;12.52;;;2.95;;
22949;SDS011;11641;51.018;4.474;2022-07-05T07:20:21;11.30;;;2.83;;
22949;SDS011;11641;51.018;4.474;2022-07-05T07:22:48;10.63;;;3.15;;
22949;SDS011;11641;51.018;4.474;2022-07-05T07:25:14;9.05;;;2.65;;
22949;SDS011;11641;51.018;4.474;2022-07-05T07:27:44;9.68;;;2.30;;
22949;SDS011;11641;51.018;4.474;2022-07-05T07:30:15;11.63;;;2.60;;
22949;SDS011;11641;51.018;4.474;2022-07-05T07:32:44;9.98;;;2.92;;
22949;SDS011;11641;51.018;4.474;2022-07-05T07:35:13;11.80;;;2.40;;
22949;SDS011;11641;51.018;4.474;2022-07-05T07:37:41;12.88;;;2.95;;
22949;SDS011;11641;51.018;4.474;2022-07-05T07:40:07;9.02;;;2.55;;
22949;SDS011;11641;51.018;4.474;2022-07-05T07:42:33;7.70;;;1.90;;
22949;SDS011;11641;51.018;4.474;2022-07-05T07:45:00;9.63;;;2.20;;
22949;SDS011;11641;51.018;4.474;2022-07-05T07:47:29;9.77;;;1.85;;
22949;SDS011;11641;51.018;4.474;2022-07-05T07:49:59;11.50;;;2.95;;
22949;SDS011;11641;51.018;4.474;2022-07-05T07:52:26;6.80;;;1.90;;
22949;SDS011;11641;51.018;4.474;2022-07-05T07:54:52;6.72;;;1.90;;
22949;SDS011;11641;51.018;4.474;2022-07-05T07:57:22;9.15;;;2.30;;
22949;SDS011;11641;51.018;4.474;2022-07-05T07:59:47;9.27;;;2.65;;
22949;SDS011;11641;51.018;4.474;2022-07-05T08:02:25;11.57;;;2.10;;
22949;SDS011;11641;51.018;4.474;2022-07-05T08:04:51;8.40;;;2.05;;
22949;SDS011;11641;51.018;4.474;2022-07-05T08:07:20;13.63;;;3.15;;
22949;SDS011;11641;51.018;4.474;2022-07-05T08:09:49;9.73;;;2.35;;
22949;SDS011;11641;51.018;4.474;2022-07-05T08:12:15;8.18;;;1.75;;
22949;SDS011;11641;51.018;4.474;2022-07-05T08:14:41;6.88;;;1.80;;
22949;SDS011;11641;51.018;4.474;2022-07-05T08:17:17;7.40;;;2.17;;
22949;SDS011;11641;51.018;4.474;2022-07-05T08:19:45;7.10;;;2.28;;
22949;SDS011;11641;51.018;4.474;2022-07-05T08:22:30;12.07;;;2.17;;
22949;SDS011;11641;51.018;4.474;2022-07-05T08:24:58;9.80;;;2.17;;
22949;SDS011;11641;51.018;4.474;2022-07-05T08:27:27;11.88;;;3.03;;
22949;SDS011;11641;51.018;4.474;2022-07-05T08:29:57;11.27;;;3.10;;
22949;SDS011;11641;51.018;4.474;2022-07-05T08:32:23;13.07;;;2.55;;
22949;SDS011;11641;51.018;4.474;2022-07-05T08:34:51;9.55;;;2.40;;
22949;SDS011;11641;51.018;4.474;2022-07-05T08:37:16;8.75;;;2.42;;
22949;SDS011;11641;51.018;4.474;2022-07-05T08:39:42;9.07;;;2.60;;
22949;SDS011;11641;51.018;4.474;2022-07-05T08:42:08;11.68;;;2.40;;
22949;SDS011;11641;51.018;4.474;2022-07-05T08:44:35;10.98;;;2.72;;
22949;SDS011;11641;51.018;4.474;2022-07-05T08:47:16;5.32;;;2.05;;
22949;SDS011;11641;51.018;4.474;2022-07-05T08:49:43;6.22;;;2.10;;
22949;SDS011;11641;51.018;4.474;2022-07-05T08:52:11;11.75;;;2.28;;
22949;SDS011;11641;51.018;4.474;2022-07-05T08:54:40;9.02;;;2.40;;
22949;SDS011;11641;51.018;4.474;2022-07-05T08:57:06;14.88;;;2.45;;
22949;SDS011;11641;51.018;4.474;2022-07-05T08:59:33;8.70;;;2.60;;
22949;SDS011;11641;51.018;4.474;2022-07-05T09:02:01;8.50;;;2.13;;
22949;SDS011;11641;51.018;4.474;2022-07-05T09:04:30;8.23;;;2.22;;
22949;SDS011;11641;51.018;4.474;2022-07-05T09:07:03;6.78;;;2.20;;
22949;SDS011;11641;51.018;4.474;2022-07-05T09:09:32;10.70;;;2.13;;
22949;SDS011;11641;51.018;4.474;2022-07-05T09:11:59;9.13;;;2.22;;
22949;SDS011;11641;51.018;4.474;2022-07-05T09:14:28;8.90;;;2.22;;
22949;SDS011;11641;51.018;4.474;2022-07-05T09:16:53;15.63;;;2.10;;
22949;SDS011;11641;51.018;4.474;2022-07-05T09:19:21;8.05;;;2.00;;
22949;SDS011;11641;51.018;4.474;2022-07-05T09:22:00;10.25;;;2.08;;
22949;SDS011;11641;51.018;4.474;2022-07-05T09:24:28;6.57;;;2.08;;
22949;SDS011;11641;51.018;4.474;2022-07-05T09:27:03;8.55;;;1.90;;
22949;SDS011;11641;51.018;4.474;2022-07-05T09:29:36;7.28;;;1.88;;
22949;SDS011;11641;51.018;4.474;2022-07-05T09:32:01;5.25;;;1.75;;
22949;SDS011;11641;51.018;4.474;2022-07-05T09:34:28;7.35;;;1.80;;
22949;SDS011;11641;51.018;4.474;2022-07-05T09:36:59;5.05;;;1.50;;
22949;SDS011;11641;51.018;4.474;2022-07-05T09:44:54;10.32;;;1.60;;
22949;SDS011;11641;51.018;4.474;2022-07-05T09:47:21;8.18;;;2.03;;
22949;SDS011;11641;51.018;4.474;2022-07-05T09:49:57;5.13;;;1.25;;
22949;SDS011;11641;51.018;4.474;2022-07-05T09:52:35;8.52;;;2.10;;
22949;SDS011;11641;51.018;4.474;2022-07-05T09:55:03;5.45;;;1.85;;
22949;SDS011;11641;51.018;4.474;2022-07-05T09:57:31;8.07;;;1.63;;
22949;SDS011;11641;51.018;4.474;2022-07-05T10:00:03;6.90;;;1.90;;
22949;SDS011;11641;51.018;4.474;2022-07-05T10:05:07;6.55;;;1.60;;
22949;SDS011;11641;51.018;4.474;2022-07-05T10:07:41;8.52;;;2.20;;
22949;SDS011;11641;51.018;4.474;2022-07-05T10:12:48;8.07;;;1.90;;
22949;SDS011;11641;51.018;4.474;2022-07-05T10:15:17;4.57;;;1.60;;
22949;SDS011;11641;51.018;4.474;2022-07-05T10:17:50;6.93;;;1.55;;
22949;SDS011;11641;51.018;4.474;2022-07-05T10:23:19;6.00;;;1.35;;
22949;SDS011;11641;51.018;4.474;2022-07-05T10:25:49;7.80;;;1.85;;
22949;SDS011;11641;51.018;4.474;2022-07-05T10:28:18;4.82;;;1.40;;
22949;SDS011;11641;51.018;4.474;2022-07-05T10:30:45;4.03;;;1.15;;
22949;SDS011;11641;51.018;4.474;2022-07-05T10:33:15;4.25;;;1.45;;
22949;SDS011;11641;51.018;4.474;2022-07-05T10:35:46;8.05;;;1.25;;
22949;SDS011;11641;51.018;4.474;2022-07-05T10:38:12;4.85;;;1.30;;
22949;SDS011;11641;51.018;4.474;2022-07-05T10:40:40;4.30;;;1.10;;
22949;SDS011;11641;51.018;4.474;2022-07-05T10:43:08;8.15;;;1.35;;
22949;SDS011;11641;51.018;4.474;2022-07-05T10:45:36;9.20;;;1.80;;
22949;SDS011;11641;51.018;4.474;2022-07-05T10:50:48;6.32;;;1.15;;
22949;SDS011;11641;51.018;4.474;2022-07-05T10:53:22;6.88;;;1.42;;
22949;SDS011;11641;51.018;4.474;2022-07-05T10:55:53;5.40;;;1.25;;
22949;SDS011;11641;51.018;4.474;2022-07-05T10:58:21;5.00;;;1.00;;
22949;SDS011;11641;51.018;4.474;2022-07-05T11:06:32;6.45;;;1.02;;
22949;SDS011;11641;51.018;4.474;2022-07-05T11:11:35;7.00;;;1.23;;
22949;SDS011;11641;51.018;4.474;2022-07-05T11:23:07;5.47;;;1.30;;
22949;SDS011;11641;51.018;4.474;2022-07-05T11:25:43;6.20;;;1.67;;
22949;SDS011;11641;51.018;4.474;2022-07-05T11:30:50;7.88;;;1.60;;
22949;SDS011;11641;51.018;4.474;2022-07-05T11:33:31;9.57;;;1.70;;
22949;SDS011;11641;51.018;4.474;2022-07-05T11:36:07;6.32;;;1.42;;
22949;SDS011;11641;51.018;4.474;2022-07-05T11:39:09;6.45;;;1.30;;
22949;SDS011;11641;51.018;4.474;2022-07-05T11:41:46;5.25;;;1.67;;
22949;SDS011;11641;51.018;4.474;2022-07-05T11:44:15;6.13;;;1.40;;
22949;SDS011;11641;51.018;4.474;2022-07-05T11:46:46;5.90;;;1.58;;
22949;SDS011;11641;51.018;4.474;2022-07-05T11:49:18;3.75;;;1.60;;
22949;SDS011;11641;51.018;4.474;2022-07-05T11:51:53;6.32;;;2.20;;
22949;SDS011;11641;51.018;4.474;2022-07-05T11:54:27;6.25;;;2.25;;
22949;SDS011;11641;51.018;4.474;2022-07-05T11:56:59;7.40;;;2.40;;
22949;SDS011;11641;51.018;4.474;2022-07-05T11:59:26;5.35;;;2.10;;
22949;SDS011;11641;51.018;4.474;2022-07-05T12:01:53;5.55;;;2.25;;
22949;SDS011;11641;51.018;4.474;2022-07-05T12:04:25;8.63;;;1.70;;
22949;SDS011;11641;51.018;4.474;2022-07-05T12:06:52;8.90;;;1.70;;
22949;SDS011;11641;51.018;4.474;2022-07-05T12:09:26;4.20;;;1.63;;
22949;SDS011;11641;51.018;4.474;2022-07-05T12:12:21;5.75;;;1.60;;
22949;SDS011;11641;51.018;4.474;2022-07-05T12:15:07;3.63;;;1.48;;
22949;SDS011;11641;51.018;4.474;2022-07-05T12:17:35;4.60;;;1.65;;
22949;SDS011;11641;51.018;4.474;2022-07-05T12:20:03;4.57;;;1.45;;
22949;SDS011;11641;51.018;4.474;2022-07-05T12:22:34;4.88;;;1.52;;
22949;SDS011;11641;51.018;4.474;2022-07-05T12:27:31;4.53;;;1.10;;
22949;SDS011;11641;51.018;4.474;2022-07-05T12:30:02;3.72;;;1.20;;
22949;SDS011;11641;51.018;4.474;2022-07-05T12:32:29;5.85;;;1.25;;
22949;SDS011;11641;51.018;4.474;2022-07-05T12:34:56;2.60;;;0.82;;
22949;SDS011;11641;51.018;4.474;2022-07-05T12:37:23;3.80;;;0.85;;
22949;SDS011;11641;51.018;4.474;2022-07-05T12:40:01;7.82;;;1.10;;
22949;SDS011;11641;51.018;4.474;2022-07-05T12:42:35;5.10;;;1.13;;
22949;SDS011;11641;51.018;4.474;2022-07-05T12:45:05;3.28;;;0.75;;
22949;SDS011;11641;51.018;4.474;2022-07-05T12:47:47;4.53;;;0.90;;
22949;SDS011;11641;51.018;4.474;2022-07-05T12:50:18;4.40;;;0.75;;
22949;SDS011;11641;51.018;4.474;2022-07-05T12:53:03;4.05;;;0.85;;
22949;SDS011;11641;51.018;4.474;2022-07-05T12:55:58;4.35;;;0.80;;
22949;SDS011;11641;51.018;4.474;2022-07-05T13:01:24;4.10;;;0.82;;
22949;SDS011;11641;51.018;4.474;2022-07-05T13:03:57;3.28;;;0.80;;
22949;SDS011;11641;51.018;4.474;2022-07-05T13:09:09;3.95;;;1.00;;
22949;SDS011;11641;51.018;4.474;2022-07-05T13:11:41;4.10;;;0.90;;
22949;SDS011;11641;51.018;4.474;2022-07-05T13:14:10;3.28;;;0.85;;
22949;SDS011;11641;51.018;4.474;2022-07-05T13:16:37;5.63;;;0.90;;
22949;SDS011;11641;51.018;4.474;2022-07-05T13:19:09;6.68;;;1.13;;
22949;SDS011;11641;51.018;4.474;2022-07-05T13:21:36;3.75;;;0.90;;
22949;SDS011;11641;51.018;4.474;2022-07-05T13:24:02;4.90;;;0.70;;
22949;SDS011;11641;51.018;4.474;2022-07-05T13:26:29;7.25;;;0.90;;
22949;SDS011;11641;51.018;4.474;2022-07-05T13:28:55;5.15;;;0.90;;
22949;SDS011;11641;51.018;4.474;2022-07-05T13:31:21;2.72;;;0.70;;
22949;SDS011;11641;51.018;4.474;2022-07-05T13:33:47;6.13;;;1.05;;
22949;SDS011;11641;51.018;4.474;2022-07-05T13:36:13;6.82;;;1.00;;
22949;SDS011;11641;51.018;4.474;2022-07-05T13:38:38;2.55;;;0.80;;
22949;SDS011;11641;51.018;4.474;2022-07-05T13:41:04;5.40;;;0.75;;
22949;SDS011;11641;51.018;4.474;2022-07-05T13:43:30;4.72;;;0.70;;
22949;SDS011;11641;51.018;4.474;2022-07-05T13:45:56;3.33;;;1.02;;
22949;SDS011;11641;51.018;4.474;2022-07-05T13:48:21;3.25;;;0.60;;
22949;SDS011;11641;51.018;4.474;2022-07-05T13:50:50;7.30;;;0.88;;
22949;SDS011;11641;51.018;4.474;2022-07-05T13:53:16;4.43;;;1.25;;
22949;SDS011;11641;51.018;4.474;2022-07-05T13:55:41;2.63;;;0.90;;
22949;SDS011;11641;51.018;4.474;2022-07-05T13:58:07;4.65;;;1.33;;
22949;SDS011;11641;51.018;4.474;2022-07-05T14:00:33;4.97;;;1.00;;
22949;SDS011;11641;51.018;4.474;2022-07-05T14:02:59;4.10;;;0.75;;
22949;SDS011;11641;51.018;4.474;2022-07-05T14:05:24;2.38;;;0.70;;
22949;SDS011;11641;51.018;4.474;2022-07-05T14:07:51;5.90;;;1.25;;
22949;SDS011;11641;51.018;4.474;2022-07-05T14:10:17;3.72;;;0.70;;
22949;SDS011;11641;51.018;4.474;2022-07-05T14:12:43;3.40;;;0.70;;
22949;SDS011;11641;51.018;4.474;2022-07-05T14:15:09;3.80;;;0.80;;
22949;SDS011;11641;51.018;4.474;2022-07-05T14:17:36;2.38;;;0.70;;
22949;SDS011;11641;51.018;4.474;2022-07-05T14:20:02;2.90;;;0.82;;
22949;SDS011;11641;51.018;4.474;2022-07-05T14:22:30;2.22;;;0.73;;
22949;SDS011;11641;51.018;4.474;2022-07-05T14:24:56;7.22;;;0.88;;
22949;SDS011;11641;51.018;4.474;2022-07-05T14:27:31;6.28;;;0.90;;
22949;SDS011;11641;51.018;4.474;2022-07-05T14:29:57;5.88;;;0.70;;
22949;SDS011;11641;51.018;4.474;2022-07-05T14:32:23;4.20;;;0.60;;
22949;SDS011;11641;51.018;4.474;2022-07-05T14:34:51;2.45;;;0.82;;
22949;SDS011;11641;51.018;4.474;2022-07-05T14:37:17;5.25;;;0.98;;
22949;SDS011;11641;51.018;4.474;2022-07-05T14:39:46;3.60;;;0.60;;
22949;SDS011;11641;51.018;4.474;2022-07-05T14:42:12;5.22;;;0.90;;
22949;SDS011;11641;51.018;4.474;2022-07-05T14:44:38;4.85;;;0.80;;
22949;SDS011;11641;51.018;4.474;2022-07-05T14:47:03;7.20;;;0.82;;
22949;SDS011;11641;51.018;4.474;2022-07-05T14:49:29;10.77;;;0.80;;
22949;SDS011;11641;51.018;4.474;2022-07-05T14:51:55;6.13;;;0.82;;
22949;SDS011;11641;51.018;4.474;2022-07-05T14:54:20;3.20;;;0.98;;
22949;SDS011;11641;51.018;4.474;2022-07-05T14:56:46;3.03;;;0.68;;
22949;SDS011;11641;51.018;4.474;2022-07-05T14:59:15;2.83;;;0.70;;
22949;SDS011;11641;51.018;4.474;2022-07-05T15:01:41;6.13;;;0.70;;
22949;SDS011;11641;51.018;4.474;2022-07-05T15:04:07;5.28;;;0.77;;
22949;SDS011;11641;51.018;4.474;2022-07-05T15:06:32;2.42;;;0.60;;
22949;SDS011;11641;51.018;4.474;2022-07-05T15:08:58;1.83;;;0.60;;
22949;SDS011;11641;51.018;4.474;2022-07-05T15:11:24;3.47;;;0.70;;
22949;SDS011;11641;51.018;4.474;2022-07-05T15:13:50;3.60;;;0.77;;
22949;SDS011;11641;51.018;4.474;2022-07-05T15:16:16;3.58;;;0.52;;
22949;SDS011;11641;51.018;4.474;2022-07-05T15:18:42;3.42;;;0.40;;
22949;SDS011;11641;51.018;4.474;2022-07-05T15:21:08;5.03;;;0.60;;
22949;SDS011;11641;51.018;4.474;2022-07-05T15:23:34;5.90;;;0.60;;
22949;SDS011;11641;51.018;4.474;2022-07-05T15:26:04;2.67;;;0.75;;
22949;SDS011;11641;51.018;4.474;2022-07-05T15:28:30;4.68;;;0.80;;
22949;SDS011;11641;51.018;4.474;2022-07-05T15:30:57;8.05;;;0.80;;
22949;SDS011;11641;51.018;4.474;2022-07-05T15:33:23;4.22;;;0.60;;